sensor_id;sensor_type;location;lat;lon;timestamp;noise_LAeq;noise_LA_min;noise_LA_max;noise_LA01;noise_LA95
72028;Laerm;59781;52.090;5.030;2023-03-26T00:01:26;43.20;40.18;47.20;;
72028;Laerm;59781;52.090;5.030;2023-03-26T00:03:53;44.68;40.38;49.54;;
72028;Laerm;59781;52.090;5.030;2023-03-26T00:06:32;43.49;40.56;49.30;;
72028;Laerm;59781;52.090;5.030;2023-03-26T00:09:02;49.01;40.90;75.59;;
72028;Laerm;59781;52.090;5.030;2023-03-26T00:11:29;44.45;40.53;49.73;;
72028;Laerm;59781;52.090;5.030;2023-03-26T00:13:56;44.68;41.24;49.01;;
72028;Laerm;59781;52.090;5.030;2023-03-26T00:16:29;44.62;40.92;49.35;;
72028;Laerm;59781;52.090;5.030;2023-03-26T00:18:56;43.27;40.02;49.40;;
72028;Laerm;59781;52.090;5.030;2023-03-26T00:21:25;43.38;40.56;47.32;;
72028;Laerm;59781;52.090;5.030;2023-03-26T00:23:55;44.65;40.80;51.06;;
72028;Laerm;59781;52.090;5.030;2023-03-26T00:26:22;44.67;40.54;50.19;;
72028;Laerm;59781;52.090;5.030;2023-03-26T00:28:48;44.28;40.81;49.98;;
72028;Laerm;59781;52.090;5.030;2023-03-26T00:31:16;45.03;40.38;51.54;;
72028;Laerm;59781;52.090;5.030;2023-03-26T00:33:43;43.95;39.21;50.59;;
72028;Laerm;59781;52.090;5.030;2023-03-26T00:36:13;45.01;41.42;52.01;;
72028;Laerm;59781;52.090;5.030;2023-03-26T00:38:42;45.00;41.58;50.82;;
72028;Laerm;59781;52.090;5.030;2023-03-26T00:41:12;44.61;40.11;50.92;;
72028;Laerm;59781;52.090;5.030;2023-03-26T00:43:56;44.52;40.99;50.54;;
72028;Laerm;59781;52.090;5.030;2023-03-26T00:46:29;42.71;39.92;49.01;;
72028;Laerm;59781;52.090;5.030;2023-03-26T00:48:56;43.74;40.09;49.22;;
72028;Laerm;59781;52.090;5.030;2023-03-26T00:51:23;43.89;40.25;51.27;;
72028;Laerm;59781;52.090;5.030;2023-03-26T00:53:50;43.10;39.31;47.87;;
72028;Laerm;59781;52.090;5.030;2023-03-26T00:56:17;43.76;39.88;48.12;;
72028;Laerm;59781;52.090;5.030;2023-03-26T00:58:44;43.21;38.82;49.38;;
72028;Laerm;59781;52.090;5.030;2023-03-26T01:01:17;42.36;38.85;48.45;;
72028;Laerm;59781;52.090;5.030;2023-03-26T01:03:45;41.80;38.39;46.00;;
72028;Laerm;59781;52.090;5.030;2023-03-26T01:06:32;42.06;38.87;47.63;;
72028;Laerm;59781;52.090;5.030;2023-03-26T01:09:12;41.85;37.97;49.63;;
72028;Laerm;59781;52.090;5.030;2023-03-26T01:11:38;42.66;38.92;50.66;;
72028;Laerm;59781;52.090;5.030;2023-03-26T01:14:19;41.53;38.30;47.64;;
72028;Laerm;59781;52.090;5.030;2023-03-26T01:17:02;41.00;37.31;47.57;;
72028;Laerm;59781;52.090;5.030;2023-03-26T01:22:45;40.73;37.86;58.63;;
72028;Laerm;59781;52.090;5.030;2023-03-26T01:25:12;40.96;37.77;47.04;;
72028;Laerm;59781;52.090;5.030;2023-03-26T01:30:55;42.48;38.10;51.99;;
72028;Laerm;59781;52.090;5.030;2023-03-26T01:37:18;41.96;37.78;48.97;;
72028;Laerm;59781;52.090;5.030;2023-03-26T01:39:50;41.00;37.69;46.41;;
72028;Laerm;59781;52.090;5.030;2023-03-26T01:42:35;40.34;37.76;47.22;;
72028;Laerm;59781;52.090;5.030;2023-03-26T01:45:23;40.76;37.54;47.31;;
72028;Laerm;59781;52.090;5.030;2023-03-26T01:47:51;40.87;37.77;48.51;;
72028;Laerm;59781;52.090;5.030;2023-03-26T01:50:17;41.16;38.50;45.38;;
72028;Laerm;59781;52.090;5.030;2023-03-26T01:52:43;41.04;38.10;47.57;;
72028;Laerm;59781;52.090;5.030;2023-03-26T01:55:10;40.34;37.60;45.52;;
72028;Laerm;59781;52.090;5.030;2023-03-26T02:00:49;40.83;38.01;46.41;;
72028;Laerm;59781;52.090;5.030;2023-03-26T02:03:34;40.73;38.01;47.72;;
72028;Laerm;59781;52.090;5.030;2023-03-26T02:06:22;41.11;38.23;47.09;;
72028;Laerm;59781;52.090;5.030;2023-03-26T02:09:07;40.98;38.50;45.46;;
72028;Laerm;59781;52.090;5.030;2023-03-26T02:11:39;40.39;37.20;45.52;;
72028;Laerm;59781;52.090;5.030;2023-03-26T02:14:07;40.48;37.26;45.50;;
72028;Laerm;59781;52.090;5.030;2023-03-26T02:16:34;40.02;37.26;45.93;;
72028;Laerm;59781;52.090;5.030;2023-03-26T02:18:59;39.63;36.71;43.51;;
72028;Laerm;59781;52.090;5.030;2023-03-26T02:21:27;39.30;37.02;42.89;;
72028;Laerm;59781;52.090;5.030;2023-03-26T02:23:56;39.90;36.94;45.62;;
72028;Laerm;59781;52.090;5.030;2023-03-26T02:26:30;39.19;36.95;44.88;;
72028;Laerm;59781;52.090;5.030;2023-03-26T02:29:06;40.40;37.35;47.82;;
72028;Laerm;59781;52.090;5.030;2023-03-26T02:31:34;39.98;37.06;57.62;;
72028;Laerm;59781;52.090;5.030;2023-03-26T02:34:00;41.21;37.51;55.45;;
72028;Laerm;59781;52.090;5.030;2023-03-26T02:36:29;39.23;37.00;44.90;;
72028;Laerm;59781;52.090;5.030;2023-03-26T02:38:58;38.93;36.67;59.06;;
72028;Laerm;59781;52.090;5.030;2023-03-26T02:41:25;42.99;37.85;55.86;;
72028;Laerm;59781;52.090;5.030;2023-03-26T02:44:04;41.37;37.29;57.33;;
72028;Laerm;59781;52.090;5.030;2023-03-26T02:46:50;39.54;37.11;43.89;;
72028;Laerm;59781;52.090;5.030;2023-03-26T02:49:48;39.06;37.26;43.05;;
72028;Laerm;59781;52.090;5.030;2023-03-26T02:52:45;39.48;37.26;43.60;;
72028;Laerm;59781;52.090;5.030;2023-03-26T02:55:14;39.57;36.97;45.04;;
72028;Laerm;59781;52.090;5.030;2023-03-26T02:57:41;40.09;37.38;45.87;;
72028;Laerm;59781;52.090;5.030;2023-03-26T03:00:15;40.50;37.68;47.92;;
72028;Laerm;59781;52.090;5.030;2023-03-26T03:02:54;40.76;37.85;48.40;;
72028;Laerm;59781;52.090;5.030;2023-03-26T03:05:32;40.01;37.53;54.28;;
72028;Laerm;59781;52.090;5.030;2023-03-26T03:08:23;40.49;37.58;47.55;;
72028;Laerm;59781;52.090;5.030;2023-03-26T03:11:16;39.62;37.25;46.88;;
72028;Laerm;59781;52.090;5.030;2023-03-26T03:13:44;40.29;37.21;50.24;;
72028;Laerm;59781;52.090;5.030;2023-03-26T03:16:14;39.75;36.91;47.92;;
72028;Laerm;59781;52.090;5.030;2023-03-26T03:18:40;39.03;36.93;42.35;;
72028;Laerm;59781;52.090;5.030;2023-03-26T03:21:06;40.09;37.31;46.76;;
72028;Laerm;59781;52.090;5.030;2023-03-26T03:23:32;38.99;37.14;47.33;;
72028;Laerm;59781;52.090;5.030;2023-03-26T03:26:15;40.86;37.42;47.52;;
72028;Laerm;59781;52.090;5.030;2023-03-26T03:28:48;40.83;37.53;48.54;;
72028;Laerm;59781;52.090;5.030;2023-03-26T03:31:16;40.18;37.17;48.58;;
72028;Laerm;59781;52.090;5.030;2023-03-26T03:33:43;39.86;37.32;44.49;;
72028;Laerm;59781;52.090;5.030;2023-03-26T03:36:14;40.18;37.45;47.40;;
72028;Laerm;59781;52.090;5.030;2023-03-26T03:38:43;40.79;37.07;48.28;;
72028;Laerm;59781;52.090;5.030;2023-03-26T03:41:11;39.66;37.55;45.52;;
72028;Laerm;59781;52.090;5.030;2023-03-26T03:43:40;40.12;37.33;47.12;;
72028;Laerm;59781;52.090;5.030;2023-03-26T03:46:13;39.43;37.27;48.10;;
72028;Laerm;59781;52.090;5.030;2023-03-26T03:48:44;39.36;37.14;43.49;;
72028;Laerm;59781;52.090;5.030;2023-03-26T03:51:16;39.79;37.37;45.55;;
72028;Laerm;59781;52.090;5.030;2023-03-26T03:53:57;41.64;37.55;47.58;;
72028;Laerm;59781;52.090;5.030;2023-03-26T03:56:40;40.48;37.72;45.45;;
72028;Laerm;59781;52.090;5.030;2023-03-26T03:59:24;40.18;37.30;44.46;;
72028;Laerm;59781;52.090;5.030;2023-03-26T04:01:50;39.31;37.32;45.65;;
72028;Laerm;59781;52.090;5.030;2023-03-26T04:04:31;40.07;37.33;45.78;;
72028;Laerm;59781;52.090;5.030;2023-03-26T04:07:04;39.45;37.07;47.62;;
72028;Laerm;59781;52.090;5.030;2023-03-26T04:09:37;39.71;36.90;45.65;;
72028;Laerm;59781;52.090;5.030;2023-03-26T04:12:11;39.52;37.08;43.99;;
72028;Laerm;59781;52.090;5.030;2023-03-26T04:14:57;39.98;37.22;47.86;;
72028;Laerm;59781;52.090;5.030;2023-03-26T04:17:23;39.37;37.07;42.95;;
72028;Laerm;59781;52.090;5.030;2023-03-26T04:19:53;39.60;37.53;50.54;;
72028;Laerm;59781;52.090;5.030;2023-03-26T04:22:20;39.68;37.43;44.58;;
72028;Laerm;59781;52.090;5.030;2023-03-26T04:24:52;39.51;37.41;54.11;;
72028;Laerm;59781;52.090;5.030;2023-03-26T04:27:31;39.41;37.37;42.97;;
72028;Laerm;59781;52.090;5.030;2023-03-26T04:30:19;40.06;37.58;46.08;;
72028;Laerm;59781;52.090;5.030;2023-03-26T04:32:50;39.17;37.14;46.45;;
72028;Laerm;59781;52.090;5.030;2023-03-26T04:35:17;40.12;37.26;45.13;;
72028;Laerm;59781;52.090;5.030;2023-03-26T04:37:48;40.15;37.47;46.45;;
72028;Laerm;59781;52.090;5.030;2023-03-26T04:40:21;40.18;37.05;59.62;;
72028;Laerm;59781;52.090;5.030;2023-03-26T04:43:15;39.07;37.17;42.87;;
72028;Laerm;59781;52.090;5.030;2023-03-26T04:46:03;38.96;36.85;40.97;;
72028;Laerm;59781;52.090;5.030;2023-03-26T04:48:33;39.80;37.47;45.03;;
72028;Laerm;59781;52.090;5.030;2023-03-26T04:50:59;39.15;37.09;42.28;;
72028;Laerm;59781;52.090;5.030;2023-03-26T04:53:26;38.73;36.40;41.03;;
72028;Laerm;59781;52.090;5.030;2023-03-26T04:59:26;50.44;36.74;69.63;;
72028;Laerm;59781;52.090;5.030;2023-03-26T05:01:57;42.97;36.89;57.06;;
72028;Laerm;59781;52.090;5.030;2023-03-26T05:04:26;44.27;36.90;53.57;;
72028;Laerm;59781;52.090;5.030;2023-03-26T05:06:56;47.09;36.92;60.41;;
72028;Laerm;59781;52.090;5.030;2023-03-26T05:09:45;49.05;37.46;62.83;;
72028;Laerm;59781;52.090;5.030;2023-03-26T05:12:15;49.17;36.61;64.68;;
72028;Laerm;59781;52.090;5.030;2023-03-26T05:15:02;42.60;36.60;57.24;;
72028;Laerm;59781;52.090;5.030;2023-03-26T05:17:46;62.53;37.15;79.43;;
72028;Laerm;59781;52.090;5.030;2023-03-26T05:20:34;61.18;36.80;79.05;;
72028;Laerm;59781;52.090;5.030;2023-03-26T05:23:02;40.43;36.85;57.21;;
72028;Laerm;59781;52.090;5.030;2023-03-26T05:25:30;38.87;36.90;46.70;;
72028;Laerm;59781;52.090;5.030;2023-03-26T05:27:57;40.50;36.95;53.13;;
72028;Laerm;59781;52.090;5.030;2023-03-26T05:30:28;41.47;36.85;55.55;;
72028;Laerm;59781;52.090;5.030;2023-03-26T05:32:58;41.25;36.89;61.40;;
72028;Laerm;59781;52.090;5.030;2023-03-26T05:35:29;43.18;37.11;64.49;;
72028;Laerm;59781;52.090;5.030;2023-03-26T05:37:55;40.59;37.12;55.83;;
72028;Laerm;59781;52.090;5.030;2023-03-26T05:40:23;41.75;37.33;55.53;;
72028;Laerm;59781;52.090;5.030;2023-03-26T05:42:55;41.92;37.11;57.04;;
72028;Laerm;59781;52.090;5.030;2023-03-26T05:45:33;40.90;36.67;51.01;;
72028;Laerm;59781;52.090;5.030;2023-03-26T05:48:08;40.96;37.75;54.38;;
72028;Laerm;59781;52.090;5.030;2023-03-26T05:50:34;41.64;37.84;55.30;;
72028;Laerm;59781;52.090;5.030;2023-03-26T05:53:00;41.47;37.20;55.47;;
72028;Laerm;59781;52.090;5.030;2023-03-26T05:55:45;40.45;37.72;62.52;;
72028;Laerm;59781;52.090;5.030;2023-03-26T05:58:33;40.97;37.74;58.00;;
72028;Laerm;59781;52.090;5.030;2023-03-26T06:01:17;42.41;37.84;61.86;;
72028;Laerm;59781;52.090;5.030;2023-03-26T06:04:13;41.58;38.09;62.36;;
72028;Laerm;59781;52.090;5.030;2023-03-26T06:06:57;42.78;37.92;63.51;;
72028;Laerm;59781;52.090;5.030;2023-03-26T06:09:22;44.09;38.82;62.89;;
72028;Laerm;59781;52.090;5.030;2023-03-26T06:11:48;46.09;38.26;73.40;;
72028;Laerm;59781;52.090;5.030;2023-03-26T06:14:14;45.54;39.10;67.58;;
72028;Laerm;59781;52.090;5.030;2023-03-26T06:16:58;46.37;38.81;76.66;;
72028;Laerm;59781;52.090;5.030;2023-03-26T06:19:23;46.44;38.59;74.12;;
72028;Laerm;59781;52.090;5.030;2023-03-26T06:22:10;43.21;38.34;64.88;;
72028;Laerm;59781;52.090;5.030;2023-03-26T06:24:57;45.29;38.65;76.28;;
72028;Laerm;59781;52.090;5.030;2023-03-26T06:27:38;43.81;38.30;69.83;;
72028;Laerm;59781;52.090;5.030;2023-03-26T06:30:39;50.09;39.24;74.08;;
72028;Laerm;59781;52.090;5.030;2023-03-26T06:33:13;41.86;37.94;64.81;;
72028;Laerm;59781;52.090;5.030;2023-03-26T06:35:44;42.78;38.37;59.80;;
72028;Laerm;59781;52.090;5.030;2023-03-26T06:38:12;42.32;38.51;57.18;;
72028;Laerm;59781;52.090;5.030;2023-03-26T06:40:38;43.97;38.76;59.45;;
72028;Laerm;59781;52.090;5.030;2023-03-26T06:43:16;42.31;38.13;49.79;;
72028;Laerm;59781;52.090;5.030;2023-03-26T06:46:05;43.85;38.99;60.92;;
72028;Laerm;59781;52.090;5.030;2023-03-26T06:48:38;42.25;38.70;53.56;;
72028;Laerm;59781;52.090;5.030;2023-03-26T06:51:38;46.65;38.54;66.72;;
72028;Laerm;59781;52.090;5.030;2023-03-26T06:54:24;52.47;39.13;69.84;;
72028;Laerm;59781;52.090;5.030;2023-03-26T06:56:53;50.08;39.46;70.42;;
72028;Laerm;59781;52.090;5.030;2023-03-26T06:59:37;43.59;39.26;64.45;;
72028;Laerm;59781;52.090;5.030;2023-03-26T07:02:21;44.04;39.45;59.51;;
72028;Laerm;59781;52.090;5.030;2023-03-26T07:05:05;43.96;39.54;59.51;;
72028;Laerm;59781;52.090;5.030;2023-03-26T07:07:50;43.73;38.88;53.90;;
72028;Laerm;59781;52.090;5.030;2023-03-26T07:10:35;50.23;38.80;63.66;;
72028;Laerm;59781;52.090;5.030;2023-03-26T07:13:24;42.20;38.63;62.00;;
72028;Laerm;59781;52.090;5.030;2023-03-26T07:16:08;43.02;39.10;53.74;;
72028;Laerm;59781;52.090;5.030;2023-03-26T07:18:57;44.76;38.55;58.93;;
72028;Laerm;59781;52.090;5.030;2023-03-26T07:21:29;43.52;38.81;56.93;;
72028;Laerm;59781;52.090;5.030;2023-03-26T07:23:56;42.50;37.98;57.34;;
72028;Laerm;59781;52.090;5.030;2023-03-26T07:30:03;44.58;38.21;60.24;;
72028;Laerm;59781;52.090;5.030;2023-03-26T07:32:58;42.56;37.90;62.08;;
72028;Laerm;59781;52.090;5.030;2023-03-26T07:36:11;42.70;38.44;64.00;;
72028;Laerm;59781;52.090;5.030;2023-03-26T07:39:43;42.36;38.34;55.02;;
72028;Laerm;59781;52.090;5.030;2023-03-26T07:43:02;43.06;38.35;54.68;;
72028;Laerm;59781;52.090;5.030;2023-03-26T07:45:49;42.75;38.06;59.86;;
72028;Laerm;59781;52.090;5.030;2023-03-26T07:48:41;43.17;39.23;55.95;;
72028;Laerm;59781;52.090;5.030;2023-03-26T07:51:31;43.26;39.20;58.25;;
72028;Laerm;59781;52.090;5.030;2023-03-26T07:54:16;44.10;40.11;53.12;;
72028;Laerm;59781;52.090;5.030;2023-03-26T08:00:16;43.66;39.45;55.31;;
72028;Laerm;59781;52.090;5.030;2023-03-26T08:03:27;43.15;38.87;65.80;;
72028;Laerm;59781;52.090;5.030;2023-03-26T08:06:33;41.77;38.25;52.59;;
72028;Laerm;59781;52.090;5.030;2023-03-26T08:10:05;46.57;38.23;63.00;;
72028;Laerm;59781;52.090;5.030;2023-03-26T08:13:37;43.60;38.44;68.12;;
72028;Laerm;59781;52.090;5.030;2023-03-26T08:16:30;49.96;38.55;64.74;;
72028;Laerm;59781;52.090;5.030;2023-03-26T08:19:39;42.27;38.66;56.72;;
72028;Laerm;59781;52.090;5.030;2023-03-26T08:22:16;43.15;39.07;62.91;;
72028;Laerm;59781;52.090;5.030;2023-03-26T08:30:35;43.26;39.55;52.23;;
72028;Laerm;59781;52.090;5.030;2023-03-26T08:35:36;57.13;42.12;83.80;;
72028;Laerm;59781;52.090;5.030;2023-03-26T08:38:12;54.10;43.56;78.99;;
72028;Laerm;59781;52.090;5.030;2023-03-26T08:44:14;51.48;42.06;71.78;;
72028;Laerm;59781;52.090;5.030;2023-03-26T08:47:14;52.89;43.25;73.63;;
72028;Laerm;59781;52.090;5.030;2023-03-26T09:02:43;50.18;43.70;73.42;;
72028;Laerm;59781;52.090;5.030;2023-03-26T09:05:44;53.17;46.45;74.32;;
72028;Laerm;59781;52.090;5.030;2023-03-26T09:23:21;50.67;42.70;73.72;;
72028;Laerm;59781;52.090;5.030;2023-03-26T09:42:08;50.10;42.91;73.77;;
72028;Laerm;59781;52.090;5.030;2023-03-26T09:51:09;48.24;42.32;71.57;;
72028;Laerm;59781;52.090;5.030;2023-03-26T09:54:04;47.47;42.89;70.84;;
72028;Laerm;59781;52.090;5.030;2023-03-26T10:06:26;52.45;42.60;68.27;;
72028;Laerm;59781;52.090;5.030;2023-03-26T10:09:13;49.25;42.99;73.46;;
72028;Laerm;59781;52.090;5.030;2023-03-26T10:12:32;46.84;41.22;66.79;;
72028;Laerm;59781;52.090;5.030;2023-03-26T10:23:47;46.05;41.70;65.76;;
72028;Laerm;59781;52.090;5.030;2023-03-26T10:27:00;45.25;40.98;60.35;;
72028;Laerm;59781;52.090;5.030;2023-03-26T10:29:40;46.07;41.00;62.79;;
72028;Laerm;59781;52.090;5.030;2023-03-26T10:35:23;45.41;40.18;71.98;;
72028;Laerm;59781;52.090;5.030;2023-03-26T10:41:12;45.38;41.23;60.25;;
72028;Laerm;59781;52.090;5.030;2023-03-26T10:53:07;51.14;41.96;74.67;;
72028;Laerm;59781;52.090;5.030;2023-03-26T10:55:41;50.16;42.93;72.45;;
72028;Laerm;59781;52.090;5.030;2023-03-26T10:58:26;47.13;42.76;61.20;;
72028;Laerm;59781;52.090;5.030;2023-03-26T11:01:23;45.50;41.01;59.48;;
72028;Laerm;59781;52.090;5.030;2023-03-26T11:03:55;45.42;40.32;56.51;;
72028;Laerm;59781;52.090;5.030;2023-03-26T11:06:50;44.65;39.96;53.22;;
72028;Laerm;59781;52.090;5.030;2023-03-26T11:09:48;46.35;41.73;64.33;;
72028;Laerm;59781;52.090;5.030;2023-03-26T11:12:34;47.97;40.11;70.85;;
72028;Laerm;59781;52.090;5.030;2023-03-26T11:21:07;45.89;40.62;61.07;;
72028;Laerm;59781;52.090;5.030;2023-03-26T11:24:32;45.28;40.54;61.11;;
72028;Laerm;59781;52.090;5.030;2023-03-26T11:27:46;47.09;41.03;58.20;;
72028;Laerm;59781;52.090;5.030;2023-03-26T11:30:40;48.00;41.14;66.62;;
72028;Laerm;59781;52.090;5.030;2023-03-26T11:33:17;45.99;40.56;64.95;;
72028;Laerm;59781;52.090;5.030;2023-03-26T11:35:50;48.33;40.38;68.13;;
72028;Laerm;59781;52.090;5.030;2023-03-26T11:38:38;47.82;41.36;71.98;;
72028;Laerm;59781;52.090;5.030;2023-03-26T11:41:17;50.79;41.14;78.53;;
72028;Laerm;59781;52.090;5.030;2023-03-26T11:44:19;47.96;41.10;66.52;;
72028;Laerm;59781;52.090;5.030;2023-03-26T11:46:55;45.11;40.57;57.10;;
72028;Laerm;59781;52.090;5.030;2023-03-26T11:49:25;44.87;40.29;54.43;;
72028;Laerm;59781;52.090;5.030;2023-03-26T11:51:51;44.22;39.89;57.08;;
72028;Laerm;59781;52.090;5.030;2023-03-26T11:54:19;44.95;40.45;54.32;;
72028;Laerm;59781;52.090;5.030;2023-03-26T11:57:20;45.39;40.36;69.67;;
72028;Laerm;59781;52.090;5.030;2023-03-26T12:00:04;45.75;40.44;60.48;;
72028;Laerm;59781;52.090;5.030;2023-03-26T12:02:57;44.44;40.05;59.17;;
72028;Laerm;59781;52.090;5.030;2023-03-26T12:05:27;43.69;39.61;56.16;;
72028;Laerm;59781;52.090;5.030;2023-03-26T12:08:17;44.04;40.15;58.41;;
72028;Laerm;59781;52.090;5.030;2023-03-26T12:10:58;43.94;39.37;58.73;;
72028;Laerm;59781;52.090;5.030;2023-03-26T12:16:15;44.21;39.23;59.34;;
72028;Laerm;59781;52.090;5.030;2023-03-26T12:18:43;43.46;39.20;61.13;;
72028;Laerm;59781;52.090;5.030;2023-03-26T12:21:17;43.61;39.61;50.78;;
72028;Laerm;59781;52.090;5.030;2023-03-26T12:24:02;43.53;39.52;57.92;;
72028;Laerm;59781;52.090;5.030;2023-03-26T12:26:41;43.65;39.53;51.97;;
72028;Laerm;59781;52.090;5.030;2023-03-26T12:29:16;43.43;38.85;60.17;;
72028;Laerm;59781;52.090;5.030;2023-03-26T12:32:03;45.10;39.52;67.09;;
72028;Laerm;59781;52.090;5.030;2023-03-26T12:34:35;43.85;39.90;57.86;;
72028;Laerm;59781;52.090;5.030;2023-03-26T12:37:04;44.07;39.34;57.98;;
72028;Laerm;59781;52.090;5.030;2023-03-26T12:39:36;45.17;39.84;55.41;;
72028;Laerm;59781;52.090;5.030;2023-03-26T12:42:23;44.80;40.56;59.13;;
72028;Laerm;59781;52.090;5.030;2023-03-26T12:44:54;44.58;39.93;68.79;;
72028;Laerm;59781;52.090;5.030;2023-03-26T12:47:27;43.80;39.61;54.44;;
72028;Laerm;59781;52.090;5.030;2023-03-26T12:49:55;43.68;39.83;57.47;;
72028;Laerm;59781;52.090;5.030;2023-03-26T12:58:34;54.01;40.40;71.82;;
72028;Laerm;59781;52.090;5.030;2023-03-26T13:04:36;44.34;40.12;57.62;;
72028;Laerm;59781;52.090;5.030;2023-03-26T13:07:45;44.57;39.94;60.07;;
72028;Laerm;59781;52.090;5.030;2023-03-26T13:10:47;48.23;39.73;61.35;;
72028;Laerm;59781;52.090;5.030;2023-03-26T13:14:19;43.86;40.02;58.76;;
72028;Laerm;59781;52.090;5.030;2023-03-26T13:22:58;43.80;39.65;57.58;;
72028;Laerm;59781;52.090;5.030;2023-03-26T13:29:20;45.55;40.80;59.13;;
72028;Laerm;59781;52.090;5.030;2023-03-26T13:37:40;43.26;39.59;58.65;;
72028;Laerm;59781;52.090;5.030;2023-03-26T13:43:49;47.18;40.68;70.22;;
72028;Laerm;59781;52.090;5.030;2023-03-26T13:46:41;46.72;41.06;66.57;;
72028;Laerm;59781;52.090;5.030;2023-03-26T13:49:24;55.71;40.16;85.52;;
72028;Laerm;59781;52.090;5.030;2023-03-26T13:52:05;59.87;41.74;87.02;;
72028;Laerm;59781;52.090;5.030;2023-03-26T13:54:48;53.16;40.32;83.44;;
72028;Laerm;59781;52.090;5.030;2023-03-26T13:57:37;46.94;40.03;68.87;;
72028;Laerm;59781;52.090;5.030;2023-03-26T14:00:12;44.88;40.33;54.59;;
72028;Laerm;59781;52.090;5.030;2023-03-26T14:02:54;45.59;39.81;59.68;;
72028;Laerm;59781;52.090;5.030;2023-03-26T14:05:38;45.08;40.37;54.86;;
72028;Laerm;59781;52.090;5.030;2023-03-26T14:08:29;44.75;40.63;61.67;;
72028;Laerm;59781;52.090;5.030;2023-03-26T14:11:09;56.12;40.20;87.75;;
72028;Laerm;59781;52.090;5.030;2023-03-26T14:13:53;49.06;40.43;76.64;;
72028;Laerm;59781;52.090;5.030;2023-03-26T14:16:37;44.79;40.51;60.25;;
72028;Laerm;59781;52.090;5.030;2023-03-26T14:22:50;46.68;41.05;67.55;;
72028;Laerm;59781;52.090;5.030;2023-03-26T14:25:44;44.34;39.82;60.96;;
72028;Laerm;59781;52.090;5.030;2023-03-26T14:28:47;49.99;40.92;79.58;;
72028;Laerm;59781;52.090;5.030;2023-03-26T14:31:42;46.70;40.48;57.71;;
72028;Laerm;59781;52.090;5.030;2023-03-26T14:43:29;44.92;40.63;57.71;;
72028;Laerm;59781;52.090;5.030;2023-03-26T14:46:39;49.08;40.98;77.46;;
72028;Laerm;59781;52.090;5.030;2023-03-26T14:55:58;46.50;41.16;70.38;;
72028;Laerm;59781;52.090;5.030;2023-03-26T15:05:39;50.25;40.47;82.42;;
72028;Laerm;59781;52.090;5.030;2023-03-26T15:11:50;47.72;41.63;63.33;;
72028;Laerm;59781;52.090;5.030;2023-03-26T15:32:17;54.76;40.27;86.82;;
72028;Laerm;59781;52.090;5.030;2023-03-26T15:49:39;46.09;40.53;59.94;;
72028;Laerm;59781;52.090;5.030;2023-03-26T15:52:32;45.89;40.45;66.56;;
72028;Laerm;59781;52.090;5.030;2023-03-26T15:55:32;44.56;39.83;55.89;;
72028;Laerm;59781;52.090;5.030;2023-03-26T15:58:29;46.90;40.61;65.21;;
72028;Laerm;59781;52.090;5.030;2023-03-26T16:01:29;46.55;40.32;77.02;;
72028;Laerm;59781;52.090;5.030;2023-03-26T16:04:49;45.04;39.75;57.84;;
72028;Laerm;59781;52.090;5.030;2023-03-26T16:11:09;44.44;40.15;57.42;;
72028;Laerm;59781;52.090;5.030;2023-03-26T16:13:39;45.00;40.89;53.96;;
72028;Laerm;59781;52.090;5.030;2023-03-26T16:18:57;44.90;39.78;59.96;;
72028;Laerm;59781;52.090;5.030;2023-03-26T16:24:27;44.37;40.20;56.74;;
72028;Laerm;59781;52.090;5.030;2023-03-26T16:27:03;43.57;39.29;52.45;;
72028;Laerm;59781;52.090;5.030;2023-03-26T16:32:38;43.94;40.25;61.67;;
72028;Laerm;59781;52.090;5.030;2023-03-26T16:37:46;43.95;40.63;50.34;;
72028;Laerm;59781;52.090;5.030;2023-03-26T16:43:12;43.67;40.53;55.98;;
72028;Laerm;59781;52.090;5.030;2023-03-26T16:47:10;44.47;40.62;59.71;;
72028;Laerm;59781;52.090;5.030;2023-03-26T16:52:21;44.09;39.09;53.04;;
72028;Laerm;59781;52.090;5.030;2023-03-26T16:55:18;43.65;39.52;60.46;;
72028;Laerm;59781;52.090;5.030;2023-03-26T16:58:14;42.93;39.55;56.86;;
72028;Laerm;59781;52.090;5.030;2023-03-26T17:01:00;45.25;39.60;65.39;;
72028;Laerm;59781;52.090;5.030;2023-03-26T17:12:16;45.97;39.58;75.21;;
72028;Laerm;59781;52.090;5.030;2023-03-26T17:18:31;45.06;40.10;58.96;;
72028;Laerm;59781;52.090;5.030;2023-03-26T17:27:45;43.74;39.87;49.74;;
72028;Laerm;59781;52.090;5.030;2023-03-26T17:41:08;44.17;39.95;62.09;;
72028;Laerm;59781;52.090;5.030;2023-03-26T17:43:37;44.19;40.42;50.60;;
72028;Laerm;59781;52.090;5.030;2023-03-26T17:46:39;45.36;39.94;69.14;;
72028;Laerm;59781;52.090;5.030;2023-03-26T17:49:27;44.73;40.31;60.01;;
72028;Laerm;59781;52.090;5.030;2023-03-26T17:52:03;43.64;40.65;64.22;;
72028;Laerm;59781;52.090;5.030;2023-03-26T17:54:50;51.93;40.48;72.98;;
72028;Laerm;59781;52.090;5.030;2023-03-26T17:59:59;43.74;40.80;51.01;;
72028;Laerm;59781;52.090;5.030;2023-03-26T18:02:37;43.96;39.90;50.58;;
72028;Laerm;59781;52.090;5.030;2023-03-26T18:05:16;43.30;40.27;52.43;;
72028;Laerm;59781;52.090;5.030;2023-03-26T18:08:35;43.62;40.00;60.78;;
72028;Laerm;59781;52.090;5.030;2023-03-26T18:17:00;43.03;39.64;50.59;;
72028;Laerm;59781;52.090;5.030;2023-03-26T18:19:27;48.24;39.41;78.24;;
72028;Laerm;59781;52.090;5.030;2023-03-26T18:21:58;47.38;39.58;80.52;;
72028;Laerm;59781;52.090;5.030;2023-03-26T18:24:37;42.87;39.49;54.57;;
72028;Laerm;59781;52.090;5.030;2023-03-26T18:27:14;42.75;39.04;47.85;;
72028;Laerm;59781;52.090;5.030;2023-03-26T18:29:59;42.73;39.20;54.15;;
72028;Laerm;59781;52.090;5.030;2023-03-26T18:32:29;42.25;38.57;49.72;;
72028;Laerm;59781;52.090;5.030;2023-03-26T18:35:16;41.93;39.23;48.84;;
72028;Laerm;59781;52.090;5.030;2023-03-26T18:37:48;42.34;39.49;47.59;;
72028;Laerm;59781;52.090;5.030;2023-03-26T18:40:21;42.86;39.88;51.70;;
72028;Laerm;59781;52.090;5.030;2023-03-26T18:42:55;43.21;40.15;50.07;;
72028;Laerm;59781;52.090;5.030;2023-03-26T18:45:30;43.21;39.79;53.56;;
72028;Laerm;59781;52.090;5.030;2023-03-26T18:48:14;42.64;39.69;51.30;;
72028;Laerm;59781;52.090;5.030;2023-03-26T18:50:43;49.35;40.35;68.93;;
72028;Laerm;59781;52.090;5.030;2023-03-26T18:53:26;42.15;39.05;61.24;;
72028;Laerm;59781;52.090;5.030;2023-03-26T18:55:56;43.21;39.71;52.89;;
72028;Laerm;59781;52.090;5.030;2023-03-26T18:58:32;43.70;39.73;64.44;;
72028;Laerm;59781;52.090;5.030;2023-03-26T19:01:03;43.85;38.72;64.93;;
72028;Laerm;59781;52.090;5.030;2023-03-26T19:03:34;42.34;39.06;55.93;;
72028;Laerm;59781;52.090;5.030;2023-03-26T19:06:06;42.60;39.03;52.11;;
72028;Laerm;59781;52.090;5.030;2023-03-26T19:08:37;43.84;39.17;54.26;;
72028;Laerm;59781;52.090;5.030;2023-03-26T19:11:08;42.42;39.62;49.18;;
72028;Laerm;59781;52.090;5.030;2023-03-26T19:13:37;46.20;40.20;60.52;;
72028;Laerm;59781;52.090;5.030;2023-03-26T19:16:23;44.77;39.38;56.77;;
72028;Laerm;59781;52.090;5.030;2023-03-26T19:18:51;43.51;39.41;59.44;;
72028;Laerm;59781;52.090;5.030;2023-03-26T19:21:19;50.39;40.14;66.98;;
72028;Laerm;59781;52.090;5.030;2023-03-26T19:23:51;44.86;39.73;58.39;;
72028;Laerm;59781;52.090;5.030;2023-03-26T19:26:18;42.79;38.81;47.78;;
72028;Laerm;59781;52.090;5.030;2023-03-26T19:28:51;46.31;39.79;61.82;;
72028;Laerm;59781;52.090;5.030;2023-03-26T19:33:59;42.84;39.26;47.18;;